Harrisburg, New York
Current Conditions -  °F | °C
As of 3:58 PM on Friday 19 Dec 2014 (Local Time) from KGTB Reporting Station
Overcast Overcast  
Wind Chill: -9°   Ceiling: 1500
Heat Index: -6°   Visibility: 10mi
Dew Point: -10°   Wind: 5mph
Humidity: 73%   Direction: 270°W
Pressure: 30.15"   Gusts: NA
Location:  43.7565°N, 75.5938°W
Report Text: KGTB 192058Z AUTO 27004KT 10SM OVC015 M06/M10 A3015 RMK AO2 SLP221 60000 T10581100 53016
Loading
Personal Weather Stations






























Interactive Weather Map New forecast layout! Learn more

10-Day Weather Forecast

Advertisements
Track Severe Weather on mobile